Météo Nord-Pas-de-Calais   La météo au plus près de chez vous

Station météorologique

Observations météo à Dunkerque (59183)

59183001 11 m Dernier relevé à 13:30
19.8°C
Humidité 64 % Vent 14.4 km/h 1021.6 hPa

Journée consultée

Mardi 1 Septembre 2026

Synthèse de la journée

Périodes de référence en UTC

Température maximale

20°C

à 12:06

06h 06h

Température minimale

16°C

à 22:00

18h 18h

Rafale maximale

29 km/h

à 03:54

00h 00h

Précipitations

0 mm

Cumul quotidien

06h 06h

Graphiques de la journée

Heure locale Réduire

Données détaillées

Relevés météo

Pas de 6 minutes Afficher les relevés infra-horaires
Relevés météo détaillés à Dunkerque pour le Mardi 1 Septembre 2026
Heure Température °C Point de rosée °C Humidité % Vent moyen (raf.), km/h Précipitations mm Pression hPa Nébulosité Octas
13:30 19.8 °C 12.5 °C 63 % 14 km/h (21 km/h) 0 mm0 mm 1021.5 hPa
13:24 19.7 °C 11.7 °C 60 % 14 km/h (21 km/h) 0 mm0 mm 1021.6 hPa
13:18 19.7 °C 11.5 °C 59 % 15 km/h (21 km/h) 0 mm0 mm 1021.7 hPa
13:12 19.8 °C 12.3 °C 62 % 15 km/h (22 km/h) 0 mm0 mm 1021.7 hPa
13:06 19.8 °C 12.5 °C 63 % 15 km/h (22 km/h) 0 mm0 mm 1021.8 hPa
13:00 19.3 °C 12.1 °C 63 % 15 km/h (22 km/h) 0 mm0 mm 1021.7 hPa
12:54 19.6 °C 12.1 °C 62 % 15 km/h (21 km/h) 0 mm0 mm 1021.7 hPa
12:48 19.8 °C 13 °C 65 % 15 km/h (22 km/h) 0 mm0 mm 1021.7 hPa
12:42 19.6 °C 12.6 °C 64 % 14 km/h (22 km/h) 0 mm0 mm 1021.7 hPa
12:36 19.3 °C 12.1 °C 63 % 14 km/h (21 km/h) 0 mm0 mm 1021.7 hPa
12:30 19.5 °C 12.5 °C 64 % 14 km/h (21 km/h) 0 mm0 mm 1021.6 hPa
12:24 19.9 °C 13.1 °C 65 % 14 km/h (21 km/h) 0 mm0 mm 1021.6 hPa
12:18 19.4 °C 12.4 °C 64 % 14 km/h (21 km/h) 0 mm0 mm 1021.7 hPa
12:12 19.8 °C 12.3 °C 62 % 15 km/h (21 km/h) 0 mm0 mm 1021.6 hPa
12:06 20 °C 13.2 °C 65 % 15 km/h (21 km/h) 0 mm0 mm 1021.6 hPa
12:00 19.7 °C 12.9 °C 65 % 15 km/h (21 km/h) 0 mm0 mm 1021.6 hPa
11:54 19.7 °C 12.7 °C 64 % 14 km/h (21 km/h) 0 mm0 mm 1021.6 hPa
11:48 19.6 °C 12.8 °C 65 % 15 km/h (21 km/h) 0 mm0 mm 1021.6 hPa
11:42 19 °C 12.7 °C 67 % 16 km/h (24 km/h) 0 mm0 mm 1021.6 hPa
11:36 19 °C 12.3 °C 65 % 14 km/h (21 km/h) 0 mm0 mm 1021.5 hPa
11:30 19.2 °C 12.5 °C 65 % 14 km/h (18 km/h) 0 mm0 mm 1021.5 hPa
11:24 19.2 °C 12.7 °C 66 % 14 km/h (19 km/h) 0 mm0 mm 1021.5 hPa
11:18 18.8 °C 12.5 °C 67 % 15 km/h (21 km/h) 0 mm0 mm 1021.4 hPa
11:12 18.8 °C 12.5 °C 67 % 14 km/h (21 km/h) 0 mm0 mm 1021.4 hPa
11:06 18.9 °C 12.2 °C 65 % 13 km/h (19 km/h) 0 mm0 mm 1021.3 hPa
11:00 18.7 °C 11.7 °C 64 % 13 km/h (17 km/h) 0 mm0 mm 1021.2 hPa 5 Octas
10:54 19 °C 12 °C 64 % 12 km/h (19 km/h) 0 mm0 mm 1021.2 hPa
10:48 18.8 °C 11.8 °C 64 % 12 km/h (19 km/h) 0 mm0 mm 1021.1 hPa
10:42 18.8 °C 12.1 °C 65 % 12 km/h (17 km/h) 0 mm0 mm 1021.1 hPa
10:36 18.6 °C 11.9 °C 65 % 12 km/h (17 km/h) 0 mm0 mm 1021 hPa
10:30 18.6 °C 11.9 °C 65 % 12 km/h (17 km/h) 0 mm0 mm 1021 hPa
10:24 18.6 °C 11.9 °C 65 % 13 km/h (21 km/h) 0 mm0 mm 1020.9 hPa
10:18 18.6 °C 11.9 °C 65 % 13 km/h (21 km/h) 0 mm0 mm 1020.9 hPa
10:12 18.5 °C 12 °C 66 % 13 km/h (18 km/h) 0 mm0 mm 1020.8 hPa
10:06 18.6 °C 12.1 °C 66 % 14 km/h (21 km/h) 0 mm0 mm 1020.8 hPa
10:00 18.3 °C 12.1 °C 67 % 14 km/h (21 km/h) 0 mm0 mm 1020.7 hPa
09:54 18.6 °C 12.8 °C 69 % 15 km/h (20 km/h) 0 mm0 mm 1020.6 hPa
09:48 18.7 °C 13.1 °C 70 % 14 km/h (20 km/h) 0 mm0 mm 1020.5 hPa
09:42 18.4 °C 13 °C 71 % 14 km/h (19 km/h) 0 mm0 mm 1020.4 hPa
09:36 18.1 °C 12.8 °C 71 % 14 km/h (19 km/h) 0 mm0 mm 1020.4 hPa
09:30 18 °C 12.9 °C 72 % 13 km/h (19 km/h) 0 mm0 mm 1020.2 hPa
09:24 18 °C 12.7 °C 71 % 13 km/h (19 km/h) 0 mm0 mm 1020.2 hPa
09:18 18.2 °C 12.9 °C 71 % 15 km/h (21 km/h) 0 mm0 mm 1020.2 hPa
09:12 18.3 °C 13.4 °C 73 % 15 km/h (19 km/h) 0 mm0 mm 1020.2 hPa
09:06 18.1 °C 12.8 °C 71 % 14 km/h (19 km/h) 0 mm0 mm 1020.1 hPa
09:00 18.2 °C 12.6 °C 70 % 13 km/h (18 km/h) 0 mm0 mm 1020.1 hPa
08:54 18.1 °C 12.8 °C 71 % 11 km/h (17 km/h) 0 mm0 mm 1020 hPa
08:48 17.9 °C 12.6 °C 71 % 11 km/h (17 km/h) 0 mm0 mm 1020 hPa
08:42 17.9 °C 12.3 °C 70 % 11 km/h (17 km/h) 0 mm0 mm 1019.9 hPa
08:36 17.9 °C 12.3 °C 70 % 11 km/h (16 km/h) 0 mm0 mm 1020 hPa
08:30 17.9 °C 12.3 °C 70 % 13 km/h (18 km/h) 0 mm0 mm 1020 hPa
08:24 17.9 °C 12.3 °C 70 % 15 km/h (20 km/h) 0 mm0 mm 1019.9 hPa
08:18 17.9 °C 12.3 °C 70 % 16 km/h (21 km/h) 0 mm0 mm 1019.7 hPa
08:12 17.9 °C 12.3 °C 70 % 16 km/h (22 km/h) 0 mm0 mm 1019.7 hPa
08:06 18 °C 12.9 °C 72 % 16 km/h (22 km/h) 0 mm0 mm 1019.6 hPa
08:00 18.1 °C 13 °C 72 % 17 km/h (22 km/h) 0 mm0 mm 1019.6 hPa
07:54 18.1 °C 12.8 °C 71 % 15 km/h (22 km/h) 0 mm0 mm 1019.5 hPa
07:48 18.2 °C 12.9 °C 71 % 16 km/h (21 km/h) 0 mm0 mm 1019.5 hPa
07:42 18.3 °C 13.2 °C 72 % 17 km/h (22 km/h) 0 mm0 mm 1019.5 hPa
07:36 18.4 °C 13.3 °C 72 % 16 km/h (20 km/h) 0 mm0 mm 1019.5 hPa
07:30 18.3 °C 12.9 °C 71 % 16 km/h (22 km/h) 0 mm0 mm 1019.4 hPa
07:24 18.3 °C 12.9 °C 71 % 17 km/h (22 km/h) 0 mm0 mm 1019.4 hPa
07:18 18.4 °C 13 °C 71 % 17 km/h (22 km/h) 0 mm0 mm 1019.3 hPa
07:12 18.4 °C 12.8 °C 70 % 16 km/h (24 km/h) 0 mm0 mm 1019.2 hPa
07:06 18.4 °C 12.8 °C 70 % 14 km/h (20 km/h) 0 mm0 mm 1019.2 hPa
07:00 18.5 °C 12.9 °C 70 % 12 km/h (18 km/h) 0 mm0 mm 1019.1 hPa
06:54 18.6 °C 12.8 °C 69 % 12 km/h (17 km/h) 0 mm0 mm 1019.1 hPa
06:48 18.5 °C 12.7 °C 69 % 14 km/h (19 km/h) 0 mm0 mm 1019.1 hPa
06:42 18.6 °C 12.6 °C 68 % 15 km/h (20 km/h) 0 mm0 mm 1019 hPa
06:36 18.6 °C 12.1 °C 66 % 14 km/h (20 km/h) 0 mm0 mm 1019 hPa
06:30 18.5 °C 11.8 °C 65 % 14 km/h (20 km/h) 0 mm0 mm 1018.9 hPa
06:24 18.6 °C 12.6 °C 68 % 15 km/h (22 km/h) 0 mm0 mm 1018.8 hPa
06:18 18.6 °C 12.3 °C 67 % 17 km/h (23 km/h) 0 mm0 mm 1018.8 hPa
06:12 18.6 °C 11.9 °C 65 % 17 km/h (23 km/h) 0 mm0 mm 1018.7 hPa
06:06 18.6 °C 12.1 °C 66 % 16 km/h (21 km/h) 0 mm0 mm 1018.7 hPa
06:00 18.7 °C 12.9 °C 69 % 15 km/h (19 km/h) 0 mm0 mm 1018.7 hPa
05:54 18.8 °C 12.8 °C 68 % 14 km/h (19 km/h) 0 mm0 mm 1018.7 hPa
05:48 18.9 °C 12.9 °C 68 % 15 km/h (21 km/h) 0 mm0 mm 1018.6 hPa
05:42 19 °C 13.2 °C 69 % 16 km/h (21 km/h) 0 mm0 mm 1018.6 hPa
05:36 18.9 °C 12.9 °C 68 % 15 km/h (20 km/h) 0 mm0 mm 1018.7 hPa
05:30 18.9 °C 12.9 °C 68 % 15 km/h (20 km/h) 0 mm0 mm 1018.6 hPa
05:24 18.9 °C 13.1 °C 69 % 14 km/h (19 km/h) 0 mm0 mm 1018.6 hPa
05:18 18.9 °C 13.1 °C 69 % 15 km/h (21 km/h) 0 mm0 mm 1018.6 hPa
05:12 19 °C 13.6 °C 71 % 17 km/h (22 km/h) 0 mm0 mm 1018.5 hPa
05:06 18.9 °C 13.5 °C 71 % 16 km/h (22 km/h) 0 mm0 mm 1018.5 hPa
05:00 18.9 °C 13.7 °C 72 % 17 km/h (22 km/h) 0 mm0 mm 1018.5 hPa
04:54 19 °C 14.3 °C 74 % 16 km/h (22 km/h) 0 mm0 mm 1018.4 hPa
04:48 19.1 °C 14.6 °C 75 % 15 km/h (21 km/h) 0 mm0 mm 1018.4 hPa
04:42 19 °C 14.3 °C 74 % 16 km/h (22 km/h) 0 mm0 mm 1018.4 hPa
04:36 19.1 °C 14.8 °C 76 % 17 km/h (22 km/h) 0 mm0 mm 1018.4 hPa
04:30 19.1 °C 14.6 °C 75 % 17 km/h (22 km/h) 0 mm0 mm 1018.4 hPa
04:24 19.1 °C 14.4 °C 74 % 17 km/h (22 km/h) 0 mm0 mm 1018.4 hPa
04:18 19.1 °C 14.6 °C 75 % 18 km/h (24 km/h) 0 mm0 mm 1018.4 hPa
04:12 19.1 °C 14.4 °C 74 % 18 km/h (24 km/h) 0 mm0 mm 1018.5 hPa
04:06 19.1 °C 14.4 °C 74 % 19 km/h (27 km/h) 0 mm0 mm 1018.5 hPa
04:00 19.3 °C 15 °C 76 % 20 km/h (29 km/h) 0 mm0 mm 1018.5 hPa
03:54 19.2 °C 14.7 °C 75 % 21 km/h (29 km/h) 0 mm0 mm 1018.5 hPa
03:48 19.2 °C 14.5 °C 74 % 21 km/h (27 km/h) 0 mm0 mm 1018.5 hPa
03:42 19.3 °C 14.5 °C 74 % 19 km/h (26 km/h) 0 mm0 mm 1018.5 hPa
03:36 19.2 °C 14.2 °C 73 % 18 km/h (24 km/h) 0 mm0 mm 1018.4 hPa
03:30 19.3 °C 14.5 °C 74 % 20 km/h (28 km/h) 0 mm0 mm 1018.4 hPa
03:24 19.3 °C 14.3 °C 73 % 21 km/h (28 km/h) 0 mm0 mm 1018.3 hPa
03:18 19.4 °C 14.6 °C 74 % 23 km/h (28 km/h) 0 mm0 mm 1018.3 hPa
03:12 19.5 °C 14.9 °C 75 % 22 km/h (28 km/h) 0 mm0 mm 1018.3 hPa
03:06 19.5 °C 14.7 °C 74 % 21 km/h (27 km/h) 0 mm0 mm 1018.2 hPa
03:00 19.4 °C 14.6 °C 74 % 20 km/h (27 km/h) 0 mm0 mm 1018.2 hPa
02:54 19.5 °C 14.9 °C 75 % 20 km/h (25 km/h) 0 mm0 mm 1018.2 hPa
02:48 19.5 °C 14.9 °C 75 % 21 km/h (27 km/h) 0 mm0 mm 1018.2 hPa
02:42 19.5 °C 14.9 °C 75 % 19 km/h (25 km/h) 0 mm0 mm 1018.2 hPa
02:36 19.4 °C 14.6 °C 74 % 19 km/h (24 km/h) 0 mm0 mm 1018.1 hPa
02:30 19.5 °C 15.2 °C 76 % 19 km/h (24 km/h) 0 mm0 mm 1018.1 hPa
02:24 19.4 °C 14.2 °C 72 % 20 km/h (27 km/h) 0 mm0 mm 1018.1 hPa
02:18 19.5 °C 14.9 °C 75 % 18 km/h (24 km/h) 0 mm0 mm 1018.1 hPa
02:12 19.6 °C 15.7 °C 78 % 15 km/h (23 km/h) 0 mm0 mm 1018.1 hPa
02:06 19.6 °C 15.5 °C 77 % 12 km/h (20 km/h) 0 mm0 mm 1018 hPa
02:00 19.5 °C 15.2 °C 76 % 9 km/h (19 km/h) 0 mm0 mm 1018 hPa
01:54 19.4 °C 15.1 °C 76 % 11 km/h (21 km/h) 0 mm0 mm 1018.1 hPa
01:48 19.4 °C 16.4 °C 83 % 14 km/h (21 km/h) 0 mm0 mm 1018.1 hPa
01:42 19.4 °C 16.4 °C 83 % 15 km/h (25 km/h) 0 mm0 mm 1018.1 hPa
01:36 19.2 °C 16.4 °C 84 % 16 km/h (25 km/h) 0 mm0 mm 1018.1 hPa
01:30 19.2 °C 16.4 °C 84 % 14 km/h (25 km/h) 0 mm0 mm 1018.1 hPa
01:24 19.1 °C 16.3 °C 84 % 14 km/h (25 km/h) 0 mm0 mm 1018 hPa
01:18 19.2 °C 16.4 °C 84 % 13 km/h (24 km/h) 0 mm0 mm 1018 hPa
01:12 19.2 °C 16.6 °C 85 % 11 km/h (19 km/h) 0 mm0 mm 1018 hPa
01:06 19.1 °C 16.5 °C 85 % 12 km/h (19 km/h) 0 mm0 mm 1018 hPa
01:00 19.1 °C 16.7 °C 86 % 13 km/h (18 km/h) 0 mm0 mm 1018 hPa
00:54 19.1 °C 16.7 °C 86 % 12 km/h (18 km/h) 0 mm0 mm 1018 hPa
00:48 18.9 °C 16.7 °C 87 % 12 km/h (19 km/h) 0 mm0 mm 1018 hPa
00:42 18.9 °C 16.7 °C 87 % 13 km/h (19 km/h) 0 mm0 mm 1018 hPa
00:36 18.7 °C 17 °C 90 % 13 km/h (20 km/h) 0 mm0 mm 1018 hPa
00:30 18.4 °C 16.7 °C 90 % 15 km/h (23 km/h) 0 mm0 mm 1018 hPa
00:24 18.5 °C 16.8 °C 90 % 15 km/h (23 km/h) 0 mm0 mm 1018 hPa
00:18 18.3 °C 16.6 °C 90 % 14 km/h (23 km/h) 0 mm0 mm 1017.9 hPa
00:12 18.3 °C 16.6 °C 90 % 15 km/h (23 km/h) 0 mm0 mm 1017.9 hPa
00:06 18.2 °C 16.4 °C 89 % 14 km/h (20 km/h) 0 mm0 mm 1017.8 hPa
00:00 18.3 °C 16.5 °C 89 % 14 km/h (20 km/h) 0 mm0 mm 1017.8 hPa

Données via Météo-France

Relevés météo à Dunkerque

Cette page rassemble les observations de la station de Dunkerque : température, humidité, vent, précipitations et pression atmosphérique. Les graphiques facilitent le suivi de la journée, tandis que le tableau donne accès aux mesures horaires et infra-horaires disponibles.

Pour replacer ces mesures dans leur contexte, consultez la climatologie de Dunkerque ainsi que ses normales et records. Retrouvez aussi la carte des observations météo en temps réel.